Time;durP1;ratioP1;P1;durP2;ratioP2;P2;SDS_P1;SDS_P2;PMS_P1;PMS_P2;Temp;Humidity;BMP_temperature;BMP_pressure;BME280_temperature;BME280_humidity;BME280_pressure;Samples;Min_cycle;Max_cycle;Signal;HPM_P1;HPM_P2
2021/07/22 00:06:34;;;;;;;1.13;0.93;;;24.00;99.90;;;;;;20849925;22;20268;-73
2021/07/22 00:16:39;;;;;;;1.30;0.70;;;24.00;99.90;;;;;;20820685;28;20213;-72
2021/07/22 00:26:43;;;;;;;1.17;0.70;;;24.20;99.90;;;;;;20832802;28;20217;-73
2021/07/22 00:36:48;;;;;;;0.73;0.60;;;24.10;99.90;;;;;;20832264;28;20229;-73
2021/07/22 00:46:51;;;;;;;0.25;0.20;;;24.20;99.90;;;;;;20832336;28;20230;-73
2021/07/22 00:56:56;;;;;;;0.40;0.40;;;24.30;99.90;;;;;;20830996;28;20204;-71
2021/07/22 01:07:00;;;;;;;1.00;0.80;;;24.20;99.90;;;;;;20831365;28;20304;-72
2021/07/22 01:17:14;;;;;;;0.50;0.50;;;24.20;99.90;;;;;;20838713;28;20542;-72
2021/07/22 01:27:19;;;;;;;2.67;1.03;;;24.20;99.90;;;;;;20834031;28;20202;-71
2021/07/22 01:37:23;;;;;;;0.68;0.68;;;24.10;99.90;;;;;;20827835;28;20198;-72
2021/07/22 01:47:28;;;;;;;0.57;0.23;;;23.80;99.90;;;;;;20827770;28;20336;-73
2021/07/22 01:57:32;;;;;;;0.80;0.63;;;23.60;99.90;;;;;;20826309;28;20246;-72
2021/07/22 02:07:37;;;;;;;1.43;0.67;;;23.40;99.90;;;;;;20771024;22;20545;-75
2021/07/22 02:17:41;;;;;;;0.30;0.30;;;23.50;99.90;;;;;;20743139;28;20278;-75
2021/07/22 02:27:46;;;;;;;1.17;0.83;;;23.40;99.90;;;;;;20743267;28;20282;-74
2021/07/22 02:37:49;;;;;;;3.70;1.20;;;23.40;99.90;;;;;;20741399;28;20233;-75
2021/07/22 02:47:54;;;;;;;0.73;0.57;;;23.30;99.90;;;;;;20740076;28;20294;-74
2021/07/22 02:58:03;;;;;;;2.00;1.17;;;23.20;99.90;;;;;;20740127;28;20215;-73
2021/07/22 03:08:08;;;;;;;1.97;0.73;;;23.00;99.90;;;;;;20819889;23;20234;-73
2021/07/22 03:18:12;;;;;;;0.60;0.60;;;23.00;99.90;;;;;;20819873;28;20311;-72
2021/07/22 03:28:17;;;;;;;0.30;0.17;;;23.20;99.90;;;;;;20819851;28;20604;-73
2021/07/22 03:38:21;;;;;;;3.50;0.70;;;23.00;99.90;;;;;;20818744;28;20683;-73
2021/07/22 03:48:26;;;;;;;0.40;0.30;;;22.90;99.90;;;;;;20809952;28;20565;-73
2021/07/22 03:58:30;;;;;;;0.67;0.57;;;22.80;99.90;;;;;;20736220;28;20297;-73
2021/07/22 04:08:35;;;;;;;2.10;1.03;;;22.80;99.90;;;;;;20736278;28;20305;-72
2021/07/22 04:18:38;;;;;;;0.73;0.47;;;22.70;99.90;;;;;;20734143;28;20229;-72
2021/07/22 04:28:43;;;;;;;1.53;1.17;;;22.80;99.90;;;;;;20726794;28;20198;-71
2021/07/22 04:38:49;;;;;;;3.30;1.03;;;22.70;99.90;;;;;;20806381;28;20265;-73
2021/07/22 04:48:54;;;;;;;0.80;0.63;;;22.70;99.90;;;;;;20816010;28;20285;-73
2021/07/22 04:58:57;;;;;;;0.90;0.90;;;22.80;99.90;;;;;;20816243;28;20646;-73
2021/07/22 05:09:02;;;;;;;0.40;0.40;;;22.50;99.90;;;;;;20827266;28;20578;-73
2021/07/22 05:19:07;;;;;;;5.73;1.43;;;22.80;99.90;;;;;;20827424;28;20222;-73
2021/07/22 05:29:12;;;;;;;2.23;0.83;;;23.10;99.90;;;;;;20828228;28;20236;-73
2021/07/22 05:39:17;;;;;;;1.53;0.67;;;23.70;99.90;;;;;;20827676;28;20218;-73
2021/07/22 05:49:22;;;;;;;1.80;1.47;;;23.90;99.90;;;;;;20826915;28;20613;-73
2021/07/22 05:59:25;;;;;;;1.70;1.23;;;24.20;99.90;;;;;;20826010;28;20232;-73
2021/07/22 06:09:30;;;;;;;4.32;1.42;;;24.60;99.90;;;;;;20824902;28;20213;-78
2021/07/22 06:19:34;;;;;;;11.15;0.75;;;25.20;99.90;;;;;;20863114;28;20222;-71
2021/07/22 06:29:39;;;;;;;2.67;1.08;;;25.80;99.90;;;;;;20822568;28;20651;-72
2021/07/22 06:39:42;;;;;;;1.92;0.95;;;26.10;99.90;;;;;;20822522;28;20312;-72
2021/07/22 06:49:50;;;;;;;0.75;0.40;;;26.60;99.90;;;;;;20827993;28;20286;-71
2021/07/22 06:59:53;;;;;;;1.00;0.88;;;26.90;99.90;;;;;;20819230;28;20237;-72
2021/07/22 07:09:59;;;;;;;4.28;1.52;;;27.20;99.90;;;;;;20817748;28;20222;-72
2021/07/22 07:20:03;;;;;;;6.35;1.80;;;27.20;99.90;;;;;;20817800;28;20226;-73
2021/07/22 07:30:12;;;;;;;5.93;1.70;;;26.90;99.90;;;;;;20815630;28;20253;-73
2021/07/22 07:40:17;;;;;;;1.73;1.50;;;27.00;99.90;;;;;;20817090;28;20588;-72
2021/07/22 07:50:22;;;;;;;9.40;2.50;;;27.20;99.90;;;;;;20815760;28;20208;-72
2021/07/22 08:00:25;;;;;;;8.55;2.92;;;27.10;99.90;;;;;;20814419;28;20295;-73
2021/07/22 08:10:30;;;;;;;1.90;1.60;;;27.20;99.90;;;;;;20815031;28;20252;-72
2021/07/22 08:20:34;;;;;;;1.52;1.13;;;27.30;99.90;;;;;;20812189;28;20257;-71
2021/07/22 08:30:39;;;;;;;1.33;1.23;;;27.20;99.90;;;;;;20811559;28;20284;-72
2021/07/22 08:40:43;;;;;;;4.00;2.35;;;27.40;99.90;;;;;;20822095;28;20222;-72
2021/07/22 08:50:50;;;;;;;1.42;1.33;;;27.30;99.90;;;;;;20823931;28;20190;-73
2021/07/22 09:00:54;;;;;;;1.20;0.88;;;27.70;99.90;;;;;;20795298;28;20724;-73
2021/07/22 09:11:09;;;;;;;10.55;1.00;;;27.90;99.90;;;;;;20798657;28;20202;-73
2021/07/22 09:21:21;;;;;;;2.03;1.50;;;27.40;99.90;;;;;;20745621;28;20717;-73
2021/07/22 09:31:27;;;;;;;8.25;1.83;;;27.70;99.90;;;;;;20757348;28;20290;-72
2021/07/22 09:41:31;;;;;;;4.05;1.52;;;27.80;99.90;;;;;;20825053;28;20226;-72
2021/07/22 09:51:37;;;;;;;4.30;1.88;;;28.20;99.90;;;;;;20842030;28;20647;-70
2021/07/22 10:01:45;;;;;;;1.35;0.95;;;27.90;99.90;;;;;;20826153;28;20225;-70
2021/07/22 10:11:51;;;;;;;0.93;0.55;;;28.20;99.90;;;;;;20805334;28;20203;-72
2021/07/22 10:21:56;;;;;;;0.88;0.63;;;27.90;99.90;;;;;;20822678;28;20218;-72
2021/07/22 10:32:02;;;;;;;3.97;2.45;;;28.30;99.90;;;;;;20805290;28;20201;-68
2021/07/22 10:42:06;;;;;;;1.63;1.50;;;28.90;99.90;;;;;;20821073;28;20256;-72
2021/07/22 10:52:13;;;;;;;1.55;1.40;;;28.70;99.90;;;;;;20821722;28;20221;-73
2021/07/22 11:02:40;;;;;;;2.33;1.10;;;28.70;99.90;;;;;;20817933;28;20230;-69
2021/07/22 11:12:48;;;;;;;1.55;1.10;;;28.90;99.90;;;;;;20822955;28;20197;-73
2021/07/22 11:22:53;;;;;;;13.23;2.15;;;30.00;99.90;;;;;;20816201;28;20287;-70
2021/07/22 11:33:16;;;;;;;1.58;1.13;;;29.80;99.90;;;;;;20816125;28;20288;-75
2021/07/22 11:43:33;;;;;;;4.13;1.33;;;30.60;99.90;;;;;;20813645;28;20225;-71
2021/07/22 11:53:39;;;;;;;2.72;1.75;;;30.80;99.90;;;;;;20815195;28;20496;-73
2021/07/22 12:03:45;;;;;;;3.15;1.80;;;31.30;99.90;;;;;;20814395;28;20312;-71
2021/07/22 12:13:52;;;;;;;1.67;1.58;;;31.70;99.90;;;;;;20822446;28;20730;-71
2021/07/22 12:24:15;;;;;;;4.03;2.08;;;31.80;99.90;;;;;;20831623;28;20226;-69
2021/07/22 12:34:20;;;;;;;1.92;1.65;;;32.70;99.90;;;;;;20828286;28;20225;-71
2021/07/22 12:44:49;;;;;;;3.05;1.90;;;33.40;99.90;;;;;;20768365;28;20233;-69
2021/07/22 12:55:02;;;;;;;1.45;1.17;;;33.40;99.90;;;;;;20828970;28;20225;-71
2021/07/22 13:05:09;;;;;;;1.65;1.55;;;32.90;99.90;;;;;;20828482;28;21167;-72
2021/07/22 13:15:15;;;;;;;2.55;1.00;;;32.40;99.90;;;;;;20828225;28;20594;-70
2021/07/22 13:25:19;;;;;;;7.53;2.05;;;32.80;99.90;;;;;;20824498;28;20257;-73
2021/07/22 13:35:32;;;;;;;6.80;2.33;;;33.30;99.90;;;;;;20826807;28;20293;-69
2021/07/22 13:45:36;;;;;;;6.32;1.33;;;32.60;99.90;;;;;;20818828;28;20225;-72
2021/07/22 13:55:41;;;;;;;9.63;2.28;;;33.80;99.90;;;;;;20810098;28;20210;-71
2021/07/22 14:05:45;;;;;;;3.55;2.28;;;33.40;99.90;;;;;;20818908;28;20556;-71
2021/07/22 14:15:50;;;;;;;2.25;1.77;;;33.50;99.90;;;;;;20819091;28;20559;-72
2021/07/22 14:25:54;;;;;;;1.30;1.20;;;33.60;99.90;;;;;;20819613;28;20221;-69
2021/07/22 14:35:59;;;;;;;7.60;3.15;;;33.70;99.90;;;;;;20817432;28;20277;-71
2021/07/22 14:46:02;;;;;;;2.35;1.85;;;35.20;99.90;;;;;;20815340;28;20257;-69
2021/07/22 14:56:07;;;;;;;3.78;1.77;;;35.80;99.90;;;;;;20816991;28;20280;-73
2021/07/22 15:06:11;;;;;;;2.03;1.63;;;36.30;99.90;;;;;;20815942;28;20571;-71
2021/07/22 15:16:18;;;;;;;2.67;1.65;;;36.20;99.90;;;;;;20815726;28;20273;-71
2021/07/22 15:26:22;;;;;;;3.03;2.15;;;35.30;99.90;;;;;;20813462;28;20222;-69
2021/07/22 15:36:27;;;;;;;5.63;1.83;;;36.70;99.90;;;;;;20816911;28;20202;-72
2021/07/22 15:46:32;;;;;;;4.45;2.35;;;36.20;99.90;;;;;;20813114;28;20228;-71
2021/07/22 15:56:37;;;;;;;1.55;1.30;;;36.50;99.90;;;;;;20811239;28;20210;-70
2021/07/22 16:06:40;;;;;;;1.73;1.02;;;35.90;99.90;;;;;;20812317;28;20229;-68
2021/07/22 16:16:46;;;;;;;2.40;1.70;;;35.90;99.90;;;;;;20810950;28;20716;-71
2021/07/22 16:26:49;;;;;;;8.98;2.15;;;34.90;99.90;;;;;;20812193;28;20276;-71
2021/07/22 16:36:54;;;;;;;3.97;2.58;;;34.40;99.90;;;;;;20811181;28;20252;-71
2021/07/22 16:46:58;;;;;;;2.03;1.75;;;33.80;99.90;;;;;;20810693;28;20220;-71
2021/07/22 16:57:05;;;;;;;3.95;1.23;;;33.00;99.90;;;;;;20810439;28;20214;-72
2021/07/22 17:07:09;;;;;;;4.53;1.52;;;32.20;99.90;;;;;;20823684;28;20244;-72
2021/07/22 17:17:14;;;;;;;1.38;1.27;;;33.80;99.90;;;;;;20832890;28;20296;-66
2021/07/22 17:27:18;;;;;;;3.05;2.10;;;34.50;99.90;;;;;;20818026;28;20574;-71
2021/07/22 17:37:23;;;;;;;6.85;2.30;;;34.20;99.90;;;;;;20822110;28;20226;-69
2021/07/22 17:47:27;;;;;;;6.43;1.77;;;33.00;99.90;;;;;;20821810;28;20232;-71
2021/07/22 17:57:32;;;;;;;2.28;1.63;;;32.10;99.90;;;;;;20820310;28;20194;-72
2021/07/22 18:07:35;;;;;;;1.88;1.48;;;32.30;99.90;;;;;;20820384;28;20276;-74
2021/07/22 18:17:40;;;;;;;2.38;1.50;;;30.70;99.90;;;;;;20820079;28;20190;-71
2021/07/22 18:27:47;;;;;;;2.13;1.80;;;30.30;99.90;;;;;;20818785;28;20226;-71
2021/07/22 18:37:54;;;;;;;1.77;1.38;;;30.30;99.90;;;;;;20815498;28;20569;-70
2021/07/22 18:47:57;;;;;;;1.80;1.17;;;29.70;99.90;;;;;;20816398;28;20309;-71
2021/07/22 18:58:02;;;;;;;5.68;1.60;;;29.40;99.90;;;;;;20816242;28;20204;-70
2021/07/22 19:08:06;;;;;;;3.50;1.88;;;28.00;99.90;;;;;;20815987;28;20852;-73
2021/07/22 19:18:13;;;;;;;1.25;1.15;;;27.20;99.90;;;;;;20796879;28;20195;-71
2021/07/22 19:28:17;;;;;;;1.48;1.30;;;27.20;99.90;;;;;;20740195;28;20230;-70
2021/07/22 19:38:22;;;;;;;1.40;1.27;;;26.90;99.90;;;;;;20770524;28;20198;-75
2021/07/22 19:48:26;;;;;;;8.63;1.90;;;26.80;99.90;;;;;;20755467;28;20341;-73
2021/07/22 19:58:31;;;;;;;2.00;1.45;;;26.60;99.90;;;;;;20804858;28;20205;-73
2021/07/22 20:08:35;;;;;;;3.28;1.67;;;26.50;99.90;;;;;;20773818;28;20229;-76
2021/07/22 20:18:49;;;;;;;1.42;1.27;;;26.50;99.90;;;;;;20788044;28;20193;-74
2021/07/22 20:29:04;;;;;;;4.80;1.67;;;26.50;99.90;;;;;;20769998;28;20222;-74
2021/07/22 20:39:12;;;;;;;1.20;1.08;;;26.40;99.90;;;;;;20787640;28;20193;-73
2021/07/22 20:49:16;;;;;;;1.55;1.10;;;26.40;99.90;;;;;;20805879;28;20229;-74
2021/07/22 20:59:23;;;;;;;4.20;2.03;;;26.20;99.90;;;;;;20794549;28;20194;-77
2021/07/22 21:09:26;;;;;;;3.00;1.45;;;25.80;99.90;;;;;;20748425;28;20241;-75
2021/07/22 21:19:31;;;;;;;3.00;1.02;;;25.40;99.90;;;;;;20747387;28;20227;-76
2021/07/22 21:29:35;;;;;;;1.15;0.98;;;25.40;99.90;;;;;;20744208;28;20746;-75
2021/07/22 21:39:42;;;;;;;2.67;1.67;;;25.20;99.90;;;;;;20825581;28;20195;-72
2021/07/22 21:49:45;;;;;;;1.33;1.10;;;25.10;99.90;;;;;;20825330;28;20617;-71
2021/07/22 21:59:51;;;;;;;3.05;1.63;;;25.10;99.90;;;;;;20826587;28;20272;-74
2021/07/22 22:09:57;;;;;;;0.98;0.82;;;24.80;99.90;;;;;;20823577;28;20308;-74
2021/07/22 22:20:05;;;;;;;2.42;1.58;;;24.40;99.90;;;;;;20825352;28;20194;-73
2021/07/22 22:30:09;;;;;;;1.73;1.23;;;24.30;99.90;;;;;;20852705;28;20682;-73
2021/07/22 22:40:15;;;;;;;0.93;0.88;;;24.10;99.90;;;;;;20823420;28;20202;-73
2021/07/22 22:50:19;;;;;;;0.90;0.90;;;24.10;99.90;;;;;;20821034;28;20711;-74
2021/07/22 23:00:24;;;;;;;0.93;0.40;;;24.20;99.90;;;;;;20820618;28;20320;-75
2021/07/22 23:10:27;;;;;;;4.13;1.40;;;24.20;99.90;;;;;;20819457;28;20230;-74
2021/07/22 23:20:32;;;;;;;5.45;1.20;;;24.10;99.90;;;;;;20819874;28;20201;-73
2021/07/22 23:30:36;;;;;;;1.57;1.03;;;24.00;99.90;;;;;;20819566;28;20263;-76
2021/07/22 23:40:41;;;;;;;1.43;0.90;;;23.80;99.90;;;;;;20818870;28;20205;-75
2021/07/22 23:50:45;;;;;;;1.53;1.43;;;23.80;99.90;;;;;;20816991;28;20230;-74
